Time;durP1;ratioP1;P1;durP2;ratioP2;P2;SDS_P1;SDS_P2;PMS_P1;PMS_P2;Temp;Humidity;BMP_temperature;BMP_pressure;BME280_temperature;BME280_humidity;BME280_pressure;Samples;Min_cycle;Max_cycle;Signal;HPM_P1;HPM_P2
2021/07/12 00:00:29;;;;;;;4.88;3.13;;;17.60;99.90;;;;;;4976615;28;20096;-91
2021/07/12 00:02:56;;;;;;;4.63;2.75;;;17.60;99.90;;;;;;4977080;28;20019;-90
2021/07/12 00:05:23;;;;;;;3.95;3.03;;;17.70;99.90;;;;;;4976381;28;20086;-91
2021/07/12 00:07:49;;;;;;;8.27;2.50;;;17.70;99.90;;;;;;4976806;28;20049;-91
2021/07/12 00:10:19;;;;;;;3.17;2.88;;;17.70;99.90;;;;;;4996619;28;20125;-91
2021/07/12 00:12:46;;;;;;;5.93;2.83;;;17.80;99.90;;;;;;5029022;28;20026;-92
2021/07/12 00:15:16;;;;;;;4.57;2.50;;;17.80;99.90;;;;;;5027732;28;20038;-91
2021/07/12 00:17:43;;;;;;;2.85;2.65;;;17.80;99.90;;;;;;5028619;28;20014;-90
2021/07/12 00:20:10;;;;;;;6.63;2.47;;;17.70;99.90;;;;;;5028440;28;20026;-90
2021/07/12 00:22:36;;;;;;;4.20;2.35;;;17.80;99.90;;;;;;5002442;28;20023;-90
2021/07/12 00:25:04;;;;;;;4.88;2.80;;;17.70;99.90;;;;;;4976731;28;20031;-90
2021/07/12 00:27:30;;;;;;;4.82;3.05;;;17.70;99.90;;;;;;4993549;28;20026;-90
2021/07/12 00:29:57;;;;;;;4.05;3.03;;;17.70;99.90;;;;;;4976206;28;20556;-91
2021/07/12 00:32:23;;;;;;;6.07;3.00;;;17.70;99.90;;;;;;4991728;28;20026;-90
2021/07/12 00:34:49;;;;;;;4.93;2.67;;;17.70;99.90;;;;;;4975962;28;20030;-90
2021/07/12 00:37:14;;;;;;;3.13;2.60;;;17.70;99.90;;;;;;4976020;28;20081;-91
2021/07/12 00:39:40;;;;;;;3.85;2.80;;;17.70;99.90;;;;;;4976434;28;20121;-91
2021/07/12 00:42:07;;;;;;;4.43;2.83;;;17.70;99.90;;;;;;4975197;28;20048;-90
2021/07/12 00:44:32;;;;;;;3.95;2.88;;;17.70;99.90;;;;;;4976412;28;20058;-90
2021/07/12 00:46:58;;;;;;;4.85;2.90;;;17.70;99.90;;;;;;4976333;28;20077;-90
2021/07/12 00:49:25;;;;;;;5.47;2.95;;;17.70;99.90;;;;;;4975359;28;20113;-91
2021/07/12 00:51:51;;;;;;;7.97;3.35;;;17.70;99.90;;;;;;4974710;28;20030;-90
2021/07/12 00:54:18;;;;;;;3.90;3.00;;;17.70;99.90;;;;;;4972627;28;20051;-89
2021/07/12 00:56:43;;;;;;;8.32;3.20;;;17.70;99.90;;;;;;4972622;28;20085;-91
2021/07/12 00:59:10;;;;;;;5.68;2.90;;;17.70;99.90;;;;;;4975852;28;20034;-90
2021/07/12 01:01:36;;;;;;;7.60;3.38;;;17.70;99.90;;;;;;5015573;28;20089;-90
2021/07/12 01:04:02;;;;;;;6.47;3.10;;;17.80;99.90;;;;;;5020894;28;20556;-89
2021/07/12 01:06:28;;;;;;;5.78;2.75;;;17.80;99.90;;;;;;4978503;28;20489;-90
2021/07/12 01:08:54;;;;;;;4.80;2.47;;;17.80;99.90;;;;;;4974108;28;20044;-91
2021/07/12 01:11:41;;;;;;;5.72;3.10;;;17.70;99.90;;;;;;4975585;28;20440;-91
2021/07/12 01:14:19;;;;;;;4.40;2.72;;;17.80;99.90;;;;;;4975278;28;20034;-90
2021/07/12 01:17:03;;;;;;;4.35;3.10;;;17.80;99.90;;;;;;4992545;28;20030;-90
2021/07/12 01:19:51;;;;;;;9.02;2.95;;;17.80;99.90;;;;;;4991328;28;20034;-91
2021/07/12 01:23:04;;;;;;;4.88;3.13;;;17.80;99.90;;;;;;4991411;28;20034;-90
2021/07/12 01:25:41;;;;;;;5.67;2.97;;;17.80;99.90;;;;;;4975459;28;20069;-90
2021/07/12 01:28:43;;;;;;;5.45;3.25;;;17.80;99.90;;;;;;4976402;28;20310;-90
2021/07/12 01:32:13;;;;;;;6.07;3.20;;;17.80;99.90;;;;;;4994440;28;20089;-90
2021/07/12 01:34:58;;;;;;;5.90;3.10;;;17.80;99.90;;;;;;4976717;28;20037;-89
2021/07/12 01:37:29;;;;;;;5.82;3.00;;;17.80;99.90;;;;;;4957691;28;20045;-91
2021/07/12 01:40:07;;;;;;;4.32;2.70;;;17.80;99.90;;;;;;4989538;28;20027;-89
2021/07/12 01:42:57;;;;;;;5.47;3.05;;;17.80;99.90;;;;;;5002409;28;20061;-91
2021/07/12 01:45:28;;;;;;;6.32;2.95;;;17.80;99.90;;;;;;5027819;28;20121;-90
2021/07/12 01:48:13;;;;;;;3.35;3.05;;;17.80;99.90;;;;;;5027983;28;20030;-90
2021/07/12 01:51:02;;;;;;;5.85;3.30;;;17.80;99.90;;;;;;5026205;28;20030;-90
2021/07/12 01:53:48;;;;;;;8.88;3.45;;;17.70;99.90;;;;;;4994483;28;20519;-90
2021/07/12 01:56:29;;;;;;;9.65;2.97;;;17.70;99.90;;;;;;5010763;28;20033;-90
2021/07/12 01:59:04;;;;;;;5.35;3.38;;;17.80;99.90;;;;;;5018226;28;20096;-91
2021/07/12 02:01:33;;;;;;;3.30;3.00;;;17.70;99.90;;;;;;4974919;28;20056;-89
2021/07/12 02:04:02;;;;;;;6.25;2.92;;;17.70;99.90;;;;;;4977974;28;20054;-90
2021/07/12 02:06:33;;;;;;;4.25;3.28;;;17.70;99.90;;;;;;5014041;28;20049;-91
2021/07/12 02:09:00;;;;;;;8.23;3.33;;;17.60;99.90;;;;;;5011644;28;20026;-90
2021/07/12 02:11:27;;;;;;;4.97;3.40;;;17.70;99.90;;;;;;5034568;28;20088;-90
2021/07/12 02:13:53;;;;;;;5.45;3.15;;;17.70;99.90;;;;;;5016177;28;20038;-91
2021/07/12 02:16:31;;;;;;;8.82;3.50;;;17.60;99.90;;;;;;5000039;28;20029;-91
2021/07/12 02:18:58;;;;;;;7.30;3.33;;;17.60;99.90;;;;;;5033558;28;20060;-90
2021/07/12 02:21:25;;;;;;;5.57;3.63;;;17.60;99.90;;;;;;5032140;28;20594;-90
2021/07/12 02:23:52;;;;;;;4.25;3.42;;;17.60;99.90;;;;;;4981222;28;20050;-90
2021/07/12 02:26:20;;;;;;;6.13;3.30;;;17.60;99.90;;;;;;4981057;28;20022;-90
2021/07/12 02:28:48;;;;;;;6.00;3.38;;;17.60;99.90;;;;;;5013484;28;20145;-90
2021/07/12 02:31:16;;;;;;;8.48;3.42;;;17.60;99.90;;;;;;4998105;28;20093;-91
2021/07/12 02:33:43;;;;;;;9.45;3.55;;;17.60;99.90;;;;;;4998604;28;20030;-90
2021/07/12 02:36:09;;;;;;;7.43;3.42;;;17.60;99.90;;;;;;5013508;28;20023;-90
2021/07/12 02:38:39;;;;;;;6.18;3.50;;;17.50;99.90;;;;;;4979792;28;20035;-91
2021/07/12 02:41:05;;;;;;;5.30;3.65;;;17.60;99.90;;;;;;4997552;28;20033;-90
2021/07/12 02:43:33;;;;;;;4.38;3.92;;;17.70;99.90;;;;;;5012747;28;20137;-91
2021/07/12 02:46:00;;;;;;;6.85;4.35;;;17.70;99.90;;;;;;4998397;28;20058;-90
2021/07/12 02:48:27;;;;;;;7.15;4.47;;;17.80;99.90;;;;;;4981093;28;20432;-90
2021/07/12 02:50:56;;;;;;;8.25;4.80;;;17.80;99.90;;;;;;4980332;28;20173;-91
2021/07/12 02:53:30;;;;;;;10.65;4.80;;;17.80;99.90;;;;;;4982773;28;20492;-90
2021/07/12 02:55:56;;;;;;;7.22;4.38;;;17.80;99.90;;;;;;5017942;28;20052;-90
2021/07/12 02:58:22;;;;;;;8.07;4.78;;;17.80;99.90;;;;;;5028404;28;20130;-90
2021/07/12 03:00:48;;;;;;;5.75;4.13;;;17.80;99.90;;;;;;4980428;28;20177;-89
2021/07/12 03:03:14;;;;;;;6.57;3.80;;;17.80;99.90;;;;;;4980523;28;20053;-90
2021/07/12 03:05:40;;;;;;;8.27;3.78;;;17.80;99.90;;;;;;4997540;28;20031;-90
2021/07/12 03:08:17;;;;;;;5.35;4.03;;;17.80;99.90;;;;;;4982430;28;20084;-91
2021/07/12 03:10:55;;;;;;;3.95;3.42;;;17.80;99.90;;;;;;5032894;28;20069;-91
2021/07/12 03:13:54;;;;;;;7.00;3.70;;;17.80;99.90;;;;;;5032391;28;20571;-90
2021/07/12 03:16:21;;;;;;;6.43;3.33;;;17.80;99.90;;;;;;4996337;28;20037;-90
2021/07/12 03:18:54;;;;;;;6.30;3.00;;;17.80;99.90;;;;;;4997466;28;20030;-90
2021/07/12 03:21:22;;;;;;;3.83;3.35;;;17.80;99.90;;;;;;5028981;28;20066;-91
2021/07/12 03:23:49;;;;;;;6.03;3.20;;;17.80;99.90;;;;;;4977947;28;20034;-90
2021/07/12 03:26:17;;;;;;;6.13;3.28;;;17.80;99.90;;;;;;4977859;28;20497;-90
2021/07/12 03:28:45;;;;;;;5.45;3.35;;;17.80;99.90;;;;;;4995017;28;20034;-91
2021/07/12 03:31:13;;;;;;;5.30;3.03;;;17.80;99.90;;;;;;4977049;28;20045;-91
2021/07/12 03:33:39;;;;;;;6.28;3.00;;;17.80;99.90;;;;;;4994161;28;20037;-91
2021/07/12 03:36:05;;;;;;;5.00;3.42;;;17.90;99.90;;;;;;4977311;28;20112;-90
2021/07/12 03:38:32;;;;;;;9.95;3.25;;;17.90;99.90;;;;;;4993842;28;20049;-91
2021/07/12 03:41:00;;;;;;;5.85;3.55;;;17.90;99.90;;;;;;4994370;28;20034;-90
2021/07/12 03:43:27;;;;;;;7.05;3.40;;;17.90;99.90;;;;;;5003331;28;20045;-90
2021/07/12 03:45:58;;;;;;;6.88;3.45;;;17.90;99.90;;;;;;4996113;28;20037;-90
2021/07/12 03:48:34;;;;;;;7.88;3.88;;;17.90;99.90;;;;;;4997298;28;20033;-90
2021/07/12 03:51:02;;;;;;;6.35;3.53;;;17.80;99.90;;;;;;5012934;28;20034;-90
2021/07/12 03:53:29;;;;;;;7.45;3.70;;;17.70;99.90;;;;;;5027906;28;20033;-91
2021/07/12 03:55:55;;;;;;;7.10;3.60;;;17.70;99.90;;;;;;5028979;28;20034;-91
2021/07/12 03:58:21;;;;;;;5.25;3.78;;;17.70;99.90;;;;;;5024536;28;20027;-90
2021/07/12 04:00:47;;;;;;;4.72;3.55;;;17.80;99.90;;;;;;4976706;28;20488;-90
2021/07/12 04:03:12;;;;;;;7.80;3.50;;;17.80;99.90;;;;;;4976654;28;20022;-90
2021/07/12 04:05:39;;;;;;;5.00;3.50;;;17.80;99.90;;;;;;4981550;28;20031;-90
2021/07/12 04:08:05;;;;;;;9.95;3.60;;;17.90;99.90;;;;;;4990344;28;20515;-91
2021/07/12 04:10:31;;;;;;;9.63;4.35;;;17.90;99.90;;;;;;5015338;28;20088;-90
2021/07/12 04:12:57;;;;;;;8.00;5.15;;;17.90;99.90;;;;;;4995639;28;20030;-90
2021/07/12 04:15:23;;;;;;;14.68;6.38;;;17.90;99.90;;;;;;5027697;28;20076;-90
2021/07/12 04:17:49;;;;;;;12.80;6.68;;;17.90;99.90;;;;;;5027567;28;20030;-90
2021/07/12 04:20:15;;;;;;;13.55;7.35;;;18.00;99.90;;;;;;5028382;28;20029;-90
2021/07/12 04:22:42;;;;;;;11.90;7.22;;;18.00;99.90;;;;;;5016485;28;20034;-90
2021/07/12 04:25:10;;;;;;;17.83;6.28;;;18.10;99.90;;;;;;4976075;28;20030;-90
2021/07/12 04:27:36;;;;;;;9.05;5.07;;;18.10;99.90;;;;;;4975356;28;20484;-91
2021/07/12 04:30:04;;;;;;;14.63;5.55;;;18.10;99.90;;;;;;4974813;28;20014;-90
2021/07/12 04:32:30;;;;;;;14.43;5.47;;;18.20;99.90;;;;;;4975534;28;20030;-91
2021/07/12 04:34:56;;;;;;;16.15;5.18;;;18.10;99.90;;;;;;4975590;28;20018;-90
2021/07/12 04:37:22;;;;;;;17.90;5.95;;;18.10;99.90;;;;;;4991434;28;20057;-91
2021/07/12 04:39:49;;;;;;;14.68;5.80;;;18.20;99.90;;;;;;4991834;28;20110;-90
2021/07/12 04:42:14;;;;;;;14.32;6.90;;;18.20;99.90;;;;;;4991558;28;20134;-91
2021/07/12 04:44:40;;;;;;;17.08;7.03;;;18.20;99.90;;;;;;4976318;28;20032;-91
2021/07/12 04:47:06;;;;;;;15.43;8.18;;;18.20;99.90;;;;;;5027670;28;20030;-89
2021/07/12 04:49:32;;;;;;;13.13;7.50;;;18.20;99.90;;;;;;5012626;28;20092;-92
2021/07/12 04:52:12;;;;;;;14.93;8.98;;;18.10;99.90;;;;;;5027134;28;20617;-92
2021/07/12 04:54:37;;;;;;;18.02;10.55;;;18.00;99.90;;;;;;5028162;28;20041;-91
2021/07/12 04:57:03;;;;;;;15.63;11.07;;;17.50;99.90;;;;;;4995114;28;20038;-90
2021/07/12 04:59:30;;;;;;;14.40;10.25;;;17.30;99.90;;;;;;4981544;28;20092;-91
2021/07/12 05:01:57;;;;;;;13.70;10.32;;;17.20;99.90;;;;;;4991373;28;20113;-89
2021/07/12 05:04:22;;;;;;;15.88;11.00;;;17.10;99.90;;;;;;4975194;28;20022;-89
2021/07/12 05:06:48;;;;;;;15.50;12.15;;;17.00;99.90;;;;;;4975123;28;20041;-89
2021/07/12 05:09:14;;;;;;;15.18;9.32;;;16.90;99.90;;;;;;5003725;28;20037;-89
2021/07/12 05:11:40;;;;;;;14.93;7.25;;;16.80;99.90;;;;;;5027622;28;20033;-89
2021/07/12 05:14:06;;;;;;;11.40;5.65;;;16.70;99.90;;;;;;5026916;28;20062;-89
2021/07/12 05:16:34;;;;;;;7.25;4.93;;;16.70;99.90;;;;;;5009870;28;20057;-88
2021/07/12 05:19:00;;;;;;;15.77;6.45;;;16.60;99.90;;;;;;5027263;28;20037;-89
2021/07/12 05:21:28;;;;;;;6.82;2.28;;;16.70;99.90;;;;;;5028437;28;20401;-89
2021/07/12 05:23:55;;;;;;;8.07;2.53;;;16.50;99.90;;;;;;4992445;28;20022;-89
2021/07/12 05:26:20;;;;;;;10.00;2.97;;;16.40;99.90;;;;;;4975679;28;20038;-90
2021/07/12 05:28:46;;;;;;;5.80;2.67;;;16.30;99.90;;;;;;5008044;28;20037;-89
2021/07/12 05:31:22;;;;;;;7.28;2.65;;;16.20;99.90;;;;;;4975006;28;20037;-90
2021/07/12 05:33:48;;;;;;;8.85;2.72;;;16.10;99.90;;;;;;4974842;28;20080;-89
2021/07/12 05:36:13;;;;;;;6.40;3.13;;;16.10;99.90;;;;;;4974581;28;20042;-90
2021/07/12 05:38:39;;;;;;;10.55;3.13;;;16.20;99.90;;;;;;4992253;28;20023;-92
2021/07/12 05:41:05;;;;;;;8.07;3.25;;;16.20;99.90;;;;;;4975421;28;20038;-91
2021/07/12 05:43:31;;;;;;;7.25;2.83;;;16.20;99.90;;;;;;4978111;28;20043;-91
2021/07/12 05:45:57;;;;;;;8.75;3.08;;;16.20;99.90;;;;;;4972440;28;20105;-90
2021/07/12 05:48:22;;;;;;;9.65;4.40;;;16.20;99.90;;;;;;4992488;28;20064;-90
2021/07/12 05:50:48;;;;;;;9.88;3.80;;;16.20;99.90;;;;;;4995642;28;20034;-89
2021/07/12 05:53:15;;;;;;;14.18;4.75;;;16.20;99.90;;;;;;5009806;28;20030;-91
2021/07/12 05:55:41;;;;;;;12.23;4.57;;;16.40;99.90;;;;;;4971014;28;20501;-91
2021/07/12 05:58:07;;;;;;;11.70;4.55;;;16.50;99.90;;;;;;4958048;28;20023;-90
2021/07/12 06:00:33;;;;;;;8.18;4.47;;;16.60;99.90;;;;;;4992214;28;20030;-90
2021/07/12 06:02:59;;;;;;;7.10;3.20;;;16.70;99.90;;;;;;5010129;28;20022;-90
2021/07/12 06:05:25;;;;;;;10.48;4.10;;;16.90;99.90;;;;;;5010629;28;20026;-89
2021/07/12 06:07:52;;;;;;;9.20;3.65;;;17.20;99.90;;;;;;5009615;28;20049;-90
2021/07/12 06:10:19;;;;;;;8.93;3.42;;;17.30;99.90;;;;;;4990021;28;20808;-91
2021/07/12 06:12:45;;;;;;;5.95;3.85;;;17.30;99.90;;;;;;4972447;28;20026;-91
2021/07/12 06:15:22;;;;;;;7.95;3.60;;;17.20;99.90;;;;;;4987108;28;20533;-90
2021/07/12 06:17:48;;;;;;;6.47;3.97;;;17.20;99.90;;;;;;4971208;28;20046;-90
2021/07/12 06:20:18;;;;;;;6.25;3.08;;;17.20;99.90;;;;;;4991598;28;20080;-93
2021/07/12 06:22:56;;;;;;;11.90;3.42;;;17.30;99.90;;;;;;5011491;28;20105;-91
2021/07/12 06:25:37;;;;;;;10.30;3.45;;;17.40;99.90;;;;;;4977832;28;20093;-91
2021/07/12 06:28:13;;;;;;;6.20;3.00;;;17.60;99.90;;;;;;5008900;28;20089;-93
2021/07/12 06:30:39;;;;;;;8.98;3.13;;;17.50;99.90;;;;;;4975409;28;20121;-93
2021/07/12 06:33:26;;;;;;;8.32;3.85;;;17.50;99.90;;;;;;5007964;28;20125;-92
2021/07/12 06:36:03;;;;;;;7.95;3.13;;;17.40;99.90;;;;;;5016159;28;20160;-93
2021/07/12 06:38:42;;;;;;;11.63;3.55;;;17.30;99.90;;;;;;5021175;28;20121;-92
2021/07/12 06:41:39;;;;;;;12.98;3.75;;;17.20;99.90;;;;;;5006187;28;20031;-93
2021/07/12 06:44:11;;;;;;;7.85;4.22;;;17.30;99.90;;;;;;4976373;28;20062;-93
2021/07/12 06:46:57;;;;;;;12.45;3.42;;;17.30;99.90;;;;;;5012006;28;20519;-93
2021/07/12 06:50:08;;;;;;;8.95;3.80;;;17.20;99.90;;;;;;4987228;28;20034;-93
2021/07/12 06:52:54;;;;;;;10.18;3.90;;;17.10;99.90;;;;;;4993162;28;20046;-93
2021/07/12 06:55:56;;;;;;;9.48;3.60;;;17.20;99.90;;;;;;4986457;28;20038;-95
2021/07/12 06:58:58;;;;;;;9.77;3.83;;;17.20;99.90;;;;;;4980796;28;20039;-93
2021/07/12 07:01:37;;;;;;;7.72;3.50;;;17.20;99.90;;;;;;4977525;28;20035;-92
2021/07/12 07:04:30;;;;;;;12.32;3.70;;;17.30;99.90;;;;;;4975715;28;20108;-95
2021/07/12 07:07:36;;;;;;;11.68;4.57;;;17.40;99.90;;;;;;5014584;28;20026;-93
2021/07/12 07:10:47;;;;;;;13.40;5.10;;;17.50;99.90;;;;;;4994129;28;20045;-93
2021/07/12 07:13:45;;;;;;;10.52;4.10;;;17.50;99.90;;;;;;5000162;28;20038;-93
2021/07/12 07:16:41;;;;;;;10.18;3.95;;;17.40;99.90;;;;;;4982409;28;20531;-94
2021/07/12 07:19:44;;;;;;;11.00;4.18;;;17.20;99.90;;;;;;5013013;28;20027;-95
2021/07/12 07:22:39;;;;;;;8.93;3.90;;;17.10;99.90;;;;;;4980771;28;20026;-93
2021/07/12 07:25:49;;;;;;;15.73;3.70;;;17.00;99.90;;;;;;5025284;28;20038;-93
2021/07/12 07:28:58;;;;;;;8.85;4.47;;;17.10;99.90;;;;;;4978812;28;20583;-92
2021/07/12 07:31:30;;;;;;;13.10;4.68;;;17.20;99.90;;;;;;5009245;28;20039;-95
2021/07/12 07:34:09;;;;;;;8.05;4.97;;;17.30;99.90;;;;;;5017193;28;20037;-94
2021/07/12 07:36:51;;;;;;;10.85;4.30;;;17.40;99.90;;;;;;4975546;28;20361;-91
2021/07/12 07:39:18;;;;;;;9.70;4.47;;;17.50;99.90;;;;;;4977548;28;20029;-91
2021/07/12 07:41:49;;;;;;;12.55;3.42;;;17.60;99.90;;;;;;5000361;28;20030;-90
2021/07/12 07:44:16;;;;;;;12.50;3.75;;;17.60;99.90;;;;;;4975207;28;20030;-92
2021/07/12 07:46:42;;;;;;;17.10;3.38;;;17.60;99.90;;;;;;4974691;28;20038;-92
2021/07/12 07:49:31;;;;;;;8.35;3.28;;;17.60;99.90;;;;;;4973351;28;20026;-92
2021/07/12 07:51:57;;;;;;;10.27;2.58;;;17.60;99.90;;;;;;4975904;28;20106;-90
2021/07/12 07:54:23;;;;;;;5.55;1.90;;;18.30;99.90;;;;;;4979825;28;20042;-94
2021/07/12 07:56:49;;;;;;;8.15;2.03;;;19.40;99.90;;;;;;4972705;28;20129;-91
2021/07/12 07:59:15;;;;;;;9.25;1.80;;;19.40;99.90;;;;;;4971090;28;20137;-92
2021/07/12 08:01:41;;;;;;;7.82;2.20;;;19.20;99.90;;;;;;4974351;28;20093;-90
2021/07/12 08:04:08;;;;;;;8.02;1.52;;;20.40;99.90;;;;;;4977480;28;20521;-92
2021/07/12 08:06:44;;;;;;;5.03;1.33;;;21.90;99.90;;;;;;4979720;28;20039;-92
2021/07/12 08:09:15;;;;;;;7.50;1.48;;;21.60;99.90;;;;;;4977905;28;20030;-94
2021/07/12 08:11:52;;;;;;;9.30;1.30;;;22.50;99.90;;;;;;4972941;28;20045;-91
2021/07/12 08:14:19;;;;;;;4.05;1.40;;;23.40;97.40;;;;;;4975403;28;20035;-90
2021/07/12 08:16:45;;;;;;;4.22;1.60;;;24.80;96.10;;;;;;4971034;28;20085;-91
2021/07/12 08:19:12;;;;;;;7.00;1.60;;;25.90;94.60;;;;;;4971009;28;20070;-92
2021/07/12 08:21:47;;;;;;;5.55;1.52;;;26.80;93.00;;;;;;4968605;28;20052;-92
2021/07/12 08:24:16;;;;;;;7.25;1.55;;;26.20;92.30;;;;;;4977275;28;20045;-91
2021/07/12 08:26:41;;;;;;;8.60;1.50;;;24.70;94.40;;;;;;4995134;28;20030;-91
2021/07/12 08:29:09;;;;;;;6.00;1.67;;;21.90;97.00;;;;;;4972741;28;20470;-91
2021/07/12 08:31:34;;;;;;;4.05;1.45;;;21.10;98.90;;;;;;4979348;28;20038;-91
2021/07/12 08:34:01;;;;;;;7.10;1.20;;;23.40;95.80;;;;;;4976798;28;20039;-92
2021/07/12 08:36:27;;;;;;;6.82;1.30;;;24.60;93.40;;;;;;4971663;28;20035;-92
2021/07/12 08:38:53;;;;;;;4.13;1.23;;;24.40;92.10;;;;;;4966337;28;20037;-90
2021/07/12 08:41:21;;;;;;;5.78;1.70;;;23.00;94.80;;;;;;4972599;28;20390;-94
2021/07/12 08:43:47;;;;;;;6.47;1.70;;;23.60;94.60;;;;;;4962076;28;20071;-91
2021/07/12 08:46:24;;;;;;;5.75;1.17;;;25.90;93.20;;;;;;4952025;28;20034;-94
2021/07/12 08:48:50;;;;;;;6.90;1.48;;;24.40;92.70;;;;;;4980266;28;20097;-92
2021/07/12 08:51:16;;;;;;;8.57;1.50;;;23.40;94.30;;;;;;4978913;28;20027;-93
2021/07/12 08:53:42;;;;;;;4.20;1.50;;;25.30;93.00;;;;;;4958731;28;20035;-91
2021/07/12 08:56:08;;;;;;;8.10;1.70;;;27.10;91.30;;;;;;4955600;28;20137;-92
2021/07/12 08:58:34;;;;;;;4.25;1.50;;;28.20;89.60;;;;;;4968551;28;20127;-91
2021/07/12 09:01:04;;;;;;;6.47;1.13;;;28.30;86.80;;;;;;4969731;28;20446;-93
2021/07/12 09:03:33;;;;;;;8.95;1.70;;;25.60;89.70;;;;;;4982350;28;20071;-90
2021/07/12 09:06:23;;;;;;;4.80;1.50;;;25.20;91.70;;;;;;4972742;28;20497;-91
2021/07/12 09:08:58;;;;;;;8.88;1.58;;;25.30;91.40;;;;;;4981911;28;20034;-92
2021/07/12 09:11:30;;;;;;;6.13;1.55;;;25.70;91.00;;;;;;4963755;28;20030;-91
2021/07/12 09:13:56;;;;;;;5.13;1.75;;;27.50;90.50;;;;;;4959446;28;20550;-90
2021/07/12 09:16:35;;;;;;;10.35;2.28;;;27.80;88.00;;;;;;4964667;28;20031;-92
2021/07/12 09:19:11;;;;;;;5.82;1.10;;;28.80;87.70;;;;;;4959225;28;20023;-92
2021/07/12 09:21:49;;;;;;;3.85;1.63;;;26.40;86.70;;;;;;4950428;28;20020;-92
2021/07/12 09:24:19;;;;;;;9.98;1.85;;;26.70;88.90;;;;;;4953876;28;20188;-92
2021/07/12 09:26:57;;;;;;;3.42;1.25;;;28.30;86.60;;;;;;4967665;28;20031;-92
2021/07/12 09:29:32;;;;;;;4.60;1.05;;;27.80;84.90;;;;;;4949068;28;20069;-91
2021/07/12 09:31:59;;;;;;;4.30;1.00;;;24.80;89.10;;;;;;4967991;28;20402;-91
2021/07/12 09:34:26;;;;;;;7.72;1.67;;;22.00;93.30;;;;;;4953862;28;20034;-92
2021/07/12 09:36:53;;;;;;;6.43;1.67;;;21.10;96.40;;;;;;4977998;28;20027;-92
2021/07/12 09:39:28;;;;;;;4.93;1.50;;;23.20;94.70;;;;;;4950655;28;20024;-92
2021/07/12 09:41:57;;;;;;;7.63;1.80;;;26.10;90.40;;;;;;4963341;28;20042;-92
2021/07/12 09:44:24;;;;;;;3.72;1.70;;;28.20;88.60;;;;;;4978775;28;20038;-92
2021/07/12 09:46:56;;;;;;;6.20;1.70;;;28.70;85.10;;;;;;5003346;28;20027;-94
2021/07/12 09:49:23;;;;;;;4.55;1.40;;;25.80;86.70;;;;;;4984295;28;20034;-91
2021/07/12 09:51:56;;;;;;;3.80;1.58;;;25.90;86.70;;;;;;4972006;28;20018;-91
2021/07/12 09:54:33;;;;;;;7.22;1.15;;;25.30;89.50;;;;;;4973973;28;20038;-91
2021/07/12 09:57:11;;;;;;;5.22;1.35;;;23.50;90.60;;;;;;4987020;28;20088;-90
2021/07/12 09:59:52;;;;;;;2.80;1.10;;;24.10;91.30;;;;;;4975109;28;20436;-91
2021/07/12 10:02:21;;;;;;;7.20;1.30;;;24.00;90.80;;;;;;5008305;28;20030;-91
2021/07/12 10:04:55;;;;;;;6.28;1.40;;;22.90;92.00;;;;;;5003114;28;20113;-93
2021/07/12 10:07:22;;;;;;;5.20;1.50;;;22.70;94.00;;;;;;4972843;28;20052;-90
2021/07/12 10:09:53;;;;;;;6.75;1.30;;;23.10;93.50;;;;;;5015534;28;20034;-89
2021/07/12 10:12:23;;;;;;;7.50;1.48;;;23.00;92.80;;;;;;5002616;28;20030;-90
2021/07/12 10:14:51;;;;;;;6.03;1.50;;;22.10;93.40;;;;;;5009919;28;20069;-90
2021/07/12 10:17:18;;;;;;;4.70;1.13;;;21.30;95.00;;;;;;4979654;28;20117;-91
2021/07/12 10:19:45;;;;;;;5.47;1.42;;;20.20;97.10;;;;;;4995273;28;20038;-90
2021/07/12 10:22:21;;;;;;;9.30;1.77;;;19.40;98.90;;;;;;5005337;28;20554;-90
2021/07/12 10:24:48;;;;;;;6.40;1.73;;;19.50;99.30;;;;;;4975094;28;20026;-90
2021/07/12 10:27:19;;;;;;;5.07;1.38;;;19.90;98.80;;;;;;4977299;28;20573;-91
2021/07/12 10:29:46;;;;;;;6.57;1.55;;;20.00;97.80;;;;;;5001282;28;20034;-90
2021/07/12 10:32:14;;;;;;;4.80;1.60;;;19.80;97.90;;;;;;4996464;28;20050;-90
2021/07/12 10:34:42;;;;;;;32.80;13.73;;;20.40;98.20;;;;;;5015080;28;20396;-91
2021/07/12 10:37:27;;;;;;;24.65;9.68;;;22.60;96.10;;;;;;4975653;28;20085;-90
2021/07/12 10:40:04;;;;;;;6.90;2.30;;;25.40;93.30;;;;;;4977037;28;20034;-91
2021/07/12 10:42:43;;;;;;;6.28;1.50;;;25.70;90.60;;;;;;5000737;28;20038;-91
2021/07/12 10:45:23;;;;;;;11.20;2.45;;;24.90;90.80;;;;;;5003123;28;20120;-91
2021/07/12 10:47:54;;;;;;;8.70;2.83;;;23.00;93.30;;;;;;5005042;28;20027;-90
2021/07/12 10:50:37;;;;;;;7.82;2.97;;;24.70;91.90;;;;;;4990874;28;20023;-91
2021/07/12 10:53:15;;;;;;;8.68;1.42;;;24.90;90.10;;;;;;4984764;28;20080;-91
2021/07/12 10:56:02;;;;;;;5.78;1.27;;;24.80;90.10;;;;;;4997862;28;20046;-90
2021/07/12 10:58:28;;;;;;;9.80;2.38;;;22.90;91.80;;;;;;4994471;28;20026;-90
2021/07/12 11:00:56;;;;;;;7.57;2.58;;;21.90;94.20;;;;;;4996548;28;20412;-90
2021/07/12 11:03:42;;;;;;;6.53;1.73;;;21.50;96.60;;;;;;4978345;28;20555;-90
2021/07/12 11:06:14;;;;;;;3.63;1.20;;;21.70;96.50;;;;;;4988570;28;20034;-90
2021/07/12 11:08:44;;;;;;;6.57;1.67;;;21.50;95.10;;;;;;4983474;28;20026;-90
2021/07/12 11:11:30;;;;;;;13.10;3.42;;;21.10;95.70;;;;;;5003015;28;20034;-89
2021/07/12 11:13:58;;;;;;;8.77;2.58;;;20.80;97.20;;;;;;5002371;28;20064;-89
2021/07/12 11:16:35;;;;;;;9.38;2.03;;;20.10;98.60;;;;;;5030043;28;20026;-89
2021/07/12 11:19:31;;;;;;;11.68;2.78;;;19.60;99.90;;;;;;5012111;28;20032;-91
2021/07/12 11:22:15;;;;;;;11.23;2.28;;;19.50;99.90;;;;;;5008297;28;20465;-90
2021/07/12 11:25:41;;;;;;;11.85;3.22;;;19.40;99.90;;;;;;4993843;28;20117;-90
2021/07/12 11:28:17;;;;;;;10.20;2.72;;;19.40;99.90;;;;;;4965873;28;20403;-90
2021/07/12 11:30:43;;;;;;;15.43;2.17;;;19.40;99.90;;;;;;4967992;28;20038;-89
2021/07/12 11:33:09;;;;;;;8.40;1.88;;;19.90;99.90;;;;;;4975857;28;20460;-89
2021/07/12 11:35:35;;;;;;;8.93;2.78;;;21.40;98.30;;;;;;4975462;28;20038;-90
2021/07/12 11:38:04;;;;;;;4.65;1.30;;;22.70;95.30;;;;;;5000992;28;20033;-89
2021/07/12 11:40:31;;;;;;;7.38;1.60;;;22.00;95.40;;;;;;4981003;28;20039;-91
2021/07/12 11:43:08;;;;;;;3.42;1.25;;;23.00;95.20;;;;;;5009344;28;20054;-92
2021/07/12 11:45:54;;;;;;;8.45;1.42;;;23.00;94.10;;;;;;4975859;28;20034;-92
2021/07/12 11:48:31;;;;;;;4.00;1.27;;;22.70;95.60;;;;;;4983099;28;20026;-92
2021/07/12 11:50:57;;;;;;;7.75;1.23;;;21.90;95.40;;;;;;5012757;28;20042;-91
2021/07/12 11:53:23;;;;;;;4.05;1.48;;;21.30;96.50;;;;;;4994474;28;20149;-89
2021/07/12 11:55:54;;;;;;;2.08;0.98;;;21.70;96.70;;;;;;4977329;28;20116;-93
2021/07/12 11:58:31;;;;;;;6.75;1.33;;;22.40;94.00;;;;;;4978440;28;20100;-92
2021/07/12 12:00:57;;;;;;;5.60;1.40;;;23.00;93.80;;;;;;4984095;28;20026;-91
2021/07/12 12:03:25;;;;;;;6.18;1.35;;;23.40;92.80;;;;;;4979056;28;20023;-94
2021/07/12 12:05:51;;;;;;;7.85;2.58;;;22.90;93.30;;;;;;4979356;28;20045;-93
2021/07/12 12:08:19;;;;;;;3.63;1.40;;;23.80;92.80;;;;;;5016798;28;20030;-93
2021/07/12 12:10:55;;;;;;;4.53;1.40;;;24.50;94.80;;;;;;5013092;28;20515;-94
2021/07/12 12:13:38;;;;;;;3.60;1.08;;;25.40;91.50;;;;;;5015034;28;20027;-93
2021/07/12 12:16:45;;;;;;;3.67;0.95;;;24.50;91.30;;;;;;4981574;28;20038;-93
2021/07/12 12:19:13;;;;;;;3.60;1.00;;;23.00;93.20;;;;;;4974954;28;20042;-92
2021/07/12 12:21:50;;;;;;;3.42;0.98;;;22.30;93.70;;;;;;4975438;28;20022;-92
2021/07/12 12:24:30;;;;;;;2.75;1.05;;;22.00;93.90;;;;;;4992536;28;20120;-96
2021/07/12 12:26:59;;;;;;;1.27;0.80;;;22.40;94.00;;;;;;4992774;28;20556;-92
2021/07/12 12:29:25;;;;;;;2.33;1.10;;;22.00;93.90;;;;;;5006207;28;20026;-91
2021/07/12 12:32:00;;;;;;;4.45;1.30;;;21.60;95.10;;;;;;5004153;28;20096;-93
2021/07/12 12:34:42;;;;;;;3.83;1.08;;;20.90;96.40;;;;;;4988913;28;20056;-93
2021/07/12 12:37:25;;;;;;;8.63;1.33;;;20.70;95.50;;;;;;4980520;28;20034;-92
2021/07/12 12:40:09;;;;;;;5.15;1.08;;;20.80;95.10;;;;;;4975592;28;20034;-92
2021/07/12 12:42:35;;;;;;;4.38;1.33;;;20.80;95.90;;;;;;5023412;28;20065;-94
2021/07/12 12:45:01;;;;;;;6.22;1.40;;;21.80;95.90;;;;;;5012947;28;20456;-94
2021/07/12 12:47:29;;;;;;;8.27;1.50;;;22.00;95.80;;;;;;5006590;28;20062;-92
2021/07/12 12:49:55;;;;;;;8.50;1.20;;;22.20;95.00;;;;;;5014454;28;20033;-91
2021/07/12 12:52:35;;;;;;;4.85;1.10;;;23.10;94.20;;;;;;5014886;28;20042;-91
2021/07/12 12:55:14;;;;;;;3.85;1.13;;;22.50;94.90;;;;;;4987694;28;20037;-95
2021/07/12 12:57:43;;;;;;;5.13;1.15;;;22.90;93.90;;;;;;5023603;28;20029;-93
2021/07/12 13:00:17;;;;;;;3.67;1.00;;;22.90;93.90;;;;;;5018785;28;20030;-93
2021/07/12 13:02:46;;;;;;;6.55;1.60;;;22.40;94.70;;;;;;5026084;28;20851;-92
2021/07/12 13:05:20;;;;;;;6.95;1.10;;;22.40;94.30;;;;;;5007517;28;20413;-92
2021/07/12 13:07:55;;;;;;;2.90;1.23;;;22.50;93.70;;;;;;4975745;28;20492;-92
2021/07/12 13:10:33;;;;;;;4.30;1.20;;;22.40;93.70;;;;;;5017467;28;20026;-93
2021/07/12 13:13:22;;;;;;;8.13;1.20;;;22.50;93.50;;;;;;5021083;28;20056;-96